Airfield :
LOGIN :

Register | Disclaimer

   EN    FR    IT 

 










Legend :    VFR   Marginal VFR   IFR   Intensive IFR   Very Intensive IFR
Visi :
Ceiling :
>= 8 km
>= 3000ft
5 to 8 km
1000 to 3000 ft
1500m to 5 km
500 to 1000 ft
800 to 1500m
200 to 500 ft
< 800m
< 200 ft
Symbols :   Thunderstorms  Fog  Heavy snow  Heavy precipitations  Wind > 20 kt
SIGMETs :     Misc.  Thunderstorms  Icing  Turbulence  Mountain Waves  Volcanic Ashes







- Airport Elevation : 776 ft
- IATA code : RMS


ETAR - Ramstein Air Base

CURRENT METAR :
  • 241556Z 00000KT 9999 FEW006 BKN020 17/17 A3002 RMK AO2A RAE17 TSE11TSB19E34 SLP167 P0000 T01690169 $

EXPIRED METARs :
  • 241534Z 11003KT 9999 BKN022 17/17 A3003 RMK AO2A LTG DSNT SE AND W RAE17 TSE11TSB19E34 SLP171 $
  • 241519Z 14004KT 9999 TS SCT016 BKN022 17/17 A3003 RMK AO2A LTG DSNT W RAE17 TSB17 SLP171 $
  • 241511Z 00000KT 9999 -RA BKN029 BKN080 17/17 A3003 RMK AO2A LTG DSNT SE AND W TSE11 CIG 011 RWY08 SLP171 $
  • 241456Z 00000KT 9999 -TSRA OVC037 17/17 A3003 RMK AO2A LTG DSNT N-NE AND SE AND W RAB06 TSB1314 SLP171 P0005 60005 T01690169 55006 $
  • 241314Z 00000KT 9999 TS FEW029 SCT035 BKN049 21/16 A3002 RMK A02A TSB14 SLP164 $
  • 241256Z 00000KT 9999 VCTS SCT028 BKN033 21/16 A3003 RMK AO2A SLP168 T02080164 $

TAF AMD TAF ETAR
Valid from the 24 at 14:00 until the 25 at 16:00 UTC


241431Z 2414/2516 10009KT 9999 BKN025 QNH2999INS
TEMPO 2414/2418 10012G20KT 8000 -TSRA BKN020CB
BECMG 2420/2421 VRB06KT 8000 BR BKN030 QNH3001INS
BECMG 2501/2502 VRB06KT 3200 BR BKN030 QNH3003INS
BECMG 2504/2505 VRB06KT 6000 BR BKN020 QNH3005INS
BECMG 2506/2507 10009KT 9999 NSW SCT040 QNH3007INS TX21/2414Z TN09/2505Z
No reported NOTAMs for that airfield.



MET'MAP, your aeronautical weather chart ! - Copyright ORBIFLY December 2007 - Disclaimer

ORBIFLY MET'MAP TEAM :

Programming & Development : Alexandra Zaïnal
Concept & Development : Baudouin d'Aumeries
Co-Development & Prog : Marc-Olivier Méhu
Technical & hardware support : Manuel Goepfert

Contact : metmap@orbifly.com




SOURCES & CREDITS :

   NOAA